Terminal Aerodrome Forecast
Issued by NWS Mt. Holly, NJ

Home | Current Version | Previous Version | Text Only | Print | Product List | Glossary On
Versions: 1 2 3 4 5 6 7 8 9 10 11 12 13 14 15 16 17 18 19 20 21 22 23 24 25 26 27
703
FTUS41 KPHI 060907 AAA
TAFPHL
TAF AMD
KPHL 060907Z 0609/0712 25004KT P6SM SCT250
     FM061300 21004KT P6SM BKN250
     FM061600 22008KT P6SM BKN250
     FM070200 VRB03KT P6SM SKC=

USA.gov is the U.S. government's official web portal to all federal, state and local government web resources and services.